Darstellungsparameter: Aktuell verwendete Einstellungen:
Skalierung der Graphiken ... ?
xyx+y,   Skalierungsfaktor:      Skalierung: Modus: x, Faktor: 1
Darstellungszeitraum ... ?
Vom - - bis: - -   Zeitraum: 13.08.2014 - 15.08.2014
Min/Max/Avg-Anzeige ... ?
Zeige MMA aktuell
Zeige MMA Monat
Zeige MMA alles
Zeige --A aktuell
Zeige --A Monat
Zeige --A alles
Keine MMA-Anzeige
MMA:
Keine MMA-Graphiken
MMA-Basis: 13.08.2014 - 15.08.2014
Quicknavigation für Darstellung... ?
Tage:      1T, 2T, 3T, 5T -1T -2T -3T -5T +1T +2T +3T +5T
Wochen: 1W, 2W, 3W -1W -2W -3W +1W +2W +3W
Monate: 1M, 3M, 6M -1M -3M -6M +1M +3M +6M
Jahre:    1J, 3J, 5J, 10J -1J -3J -5J -10J +1J +3J +5J +10J
Nutze für die Darstellung ... ?
Originaldaten oder Mittelwerte auf ...
Stundenbasis Tagesbasis Wochenbasis
Monatsbasis Jahresbasis      Datenbasis: Original-Daten
Darstellen als:
Statistik (Auto) Statistik J:M      Darstellung:
Zur Graphik,    zurück zur Übersicht aller Sensoren.
 
Tabellarische Datenbersicht: ?
 
Sensor: Nr:Datum:Temp:Feuchte:Taupunkt:
Aussen-T/F 1 13-08-2014 00:00:00 14.7 C 85 % 12.21 C
2 13-08-2014 00:05:00 14.7 C 86 % 12.38 C
3 13-08-2014 00:10:00 14.7 C 87 % 12.56 C
4 13-08-2014 00:15:00 14.6 C 87 % 12.46 C
5 13-08-2014 00:20:00 14.5 C 87 % 12.36 C
6 13-08-2014 00:25:00 14.4 C 88 % 12.44 C
7 13-08-2014 00:30:00 14.3 C 88 % 12.34 C
8 13-08-2014 00:35:00 14.2 C 88 % 12.24 C
9 13-08-2014 00:40:00 14.1 C 89 % 12.32 C
10 13-08-2014 00:45:00 14 C 89 % 12.22 C
11 13-08-2014 00:50:00 13.9 C 89 % 12.12 C
12 13-08-2014 00:55:00 13.9 C 90 % 12.29 C
13 13-08-2014 01:00:00 13.8 C 90 % 12.19 C
14 13-08-2014 01:05:00 13.8 C 90 % 12.19 C
15 13-08-2014 01:10:00 13.9 C 90 % 12.29 C
16 13-08-2014 01:15:00 13.9 C 90 % 12.29 C
17 13-08-2014 01:20:00 14 C 91 % 12.56 C
18 13-08-2014 01:25:00 14.1 C 91 % 12.65 C
19 13-08-2014 01:30:00 14.2 C 90 % 12.58 C
20 13-08-2014 01:35:00 14.2 C 90 % 12.58 C
21 13-08-2014 01:40:00 14.3 C 90 % 12.68 C
22 13-08-2014 01:45:00 14.3 C 90 % 12.68 C
23 13-08-2014 01:50:00 14.3 C 90 % 12.68 C
24 13-08-2014 01:55:00 14.3 C 89 % 12.51 C
25 13-08-2014 02:00:00 14.2 C 89 % 12.41 C
Sensor: Nr:Datum:Temp:Feuchte:Taupunkt:
Aussen-T/F 26 13-08-2014 02:05:00 14.1 C 89 % 12.32 C
27 13-08-2014 02:10:00 14 C 90 % 12.39 C
28 13-08-2014 02:15:00 13.8 C 90 % 12.19 C
29 13-08-2014 02:20:00 13.8 C 91 % 12.36 C
30 13-08-2014 02:25:00 13.8 C 92 % 12.52 C
31 13-08-2014 02:30:00 13.8 C 92 % 12.52 C
32 13-08-2014 02:35:00 13.9 C 92 % 12.62 C
33 13-08-2014 02:40:00 13.9 C 92 % 12.62 C
34 13-08-2014 02:45:00 14 C 92 % 12.72 C
35 13-08-2014 02:50:00 14.1 C 92 % 12.82 C
36 13-08-2014 02:55:00 14.1 C 91 % 12.65 C
37 13-08-2014 03:00:00 14.2 C 91 % 12.75 C
38 13-08-2014 03:05:00 14.2 C 91 % 12.75 C
39 13-08-2014 03:10:00 14.2 C 91 % 12.75 C
40 13-08-2014 03:15:00 14.2 C 90 % 12.58 C
41 13-08-2014 03:20:00 14.2 C 90 % 12.58 C
42 13-08-2014 03:25:00 14.2 C 91 % 12.75 C
43 13-08-2014 03:30:00 14.1 C 91 % 12.65 C
44 13-08-2014 03:35:00 14 C 91 % 12.56 C
45 13-08-2014 03:40:00 13.9 C 91 % 12.46 C
46 13-08-2014 03:45:00 13.9 C 91 % 12.46 C
47 13-08-2014 03:50:00 13.9 C 91 % 12.46 C
48 13-08-2014 03:55:00 13.9 C 91 % 12.46 C
49 13-08-2014 04:00:00 13.9 C 91 % 12.46 C
50 13-08-2014 04:05:00 14.1 C 91 % 12.65 C
Sensor: Nr:Datum:Temp:Feuchte:Taupunkt:
Aussen-T/F 51 13-08-2014 04:10:00 14.1 C 91 % 12.65 C
52 13-08-2014 04:15:00 14.1 C 91 % 12.65 C
53 13-08-2014 04:20:00 14.2 C 90 % 12.58 C
54 13-08-2014 04:25:00 14.2 C 90 % 12.58 C
55 13-08-2014 04:30:00 14.2 C 90 % 12.58 C
56 13-08-2014 04:35:00 14.2 C 90 % 12.58 C
57 13-08-2014 04:40:00 14.2 C 90 % 12.58 C
58 13-08-2014 04:45:00 14.1 C 90 % 12.49 C
59 13-08-2014 04:50:00 14.1 C 91 % 12.65 C
60 13-08-2014 04:55:00 14.1 C 91 % 12.65 C
61 13-08-2014 05:00:00 14.1 C 91 % 12.65 C
62 13-08-2014 05:05:00 14.2 C 91 % 12.75 C
63 13-08-2014 05:10:00 14.2 C 91 % 12.75 C
64 13-08-2014 05:15:00 14.2 C 91 % 12.75 C
65 13-08-2014 05:20:00 14.2 C 91 % 12.75 C
66 13-08-2014 05:25:00 14.2 C 91 % 12.75 C
67 13-08-2014 05:30:00 14.1 C 91 % 12.65 C
68 13-08-2014 05:35:00 14.1 C 91 % 12.65 C
69 13-08-2014 05:40:00 14.1 C 91 % 12.65 C
70 13-08-2014 05:45:00 14.1 C 91 % 12.65 C
71 13-08-2014 05:50:00 14 C 91 % 12.56 C
72 13-08-2014 05:55:00 13.9 C 91 % 12.46 C
73 13-08-2014 06:00:00 13.8 C 92 % 12.52 C
74 13-08-2014 06:05:00 13.8 C 92 % 12.52 C
75 13-08-2014 06:10:00 13.7 C 92 % 12.42 C
Sensor: Nr:Datum:Temp:Feuchte:Taupunkt:
Aussen-T/F 76 13-08-2014 06:15:00 13.6 C 92 % 12.33 C
77 13-08-2014 06:20:00 13.6 C 92 % 12.33 C
78 13-08-2014 06:25:00 13.5 C 92 % 12.23 C
79 13-08-2014 06:30:00 13.4 C 93 % 12.29 C
80 13-08-2014 06:35:00 13.5 C 93 % 12.39 C
81 13-08-2014 06:40:00 13.5 C 93 % 12.39 C
82 13-08-2014 06:45:00 13.6 C 93 % 12.49 C
83 13-08-2014 06:50:00 13.7 C 93 % 12.59 C
84 13-08-2014 06:55:00 13.7 C 93 % 12.59 C
85 13-08-2014 07:00:00 13.8 C 93 % 12.69 C
86 13-08-2014 07:05:00 13.9 C 93 % 12.79 C
87 13-08-2014 07:10:00 13.9 C 93 % 12.79 C
88 13-08-2014 07:15:00 14 C 93 % 12.89 C
89 13-08-2014 07:20:00 14 C 93 % 12.89 C
90 13-08-2014 07:25:00 14 C 93 % 12.89 C
91 13-08-2014 07:30:00 13.9 C 93 % 12.79 C
92 13-08-2014 07:35:00 14 C 93 % 12.89 C
93 13-08-2014 07:40:00 14 C 93 % 12.89 C
94 13-08-2014 07:45:00 14.1 C 94 % 13.15 C
95 13-08-2014 07:50:00 14.2 C 94 % 13.25 C
96 13-08-2014 07:55:00 14.2 C 94 % 13.25 C
97 13-08-2014 08:00:00 14.3 C 94 % 13.35 C
98 13-08-2014 08:05:00 14.4 C 93 % 13.28 C
99 13-08-2014 08:10:00 14.6 C 92 % 13.32 C
100 13-08-2014 08:15:00 14.7 C 92 % 13.41 C
Sensor: Nr:Datum:Temp:Feuchte:Taupunkt:
Aussen-T/F 101 13-08-2014 08:20:00 14.9 C 92 % 13.61 C
102 13-08-2014 08:25:00 15.1 C 91 % 13.64 C
103 13-08-2014 08:30:00 15.2 C 90 % 13.57 C
104 13-08-2014 08:35:00 15.3 C 89 % 13.5 C
105 13-08-2014 08:40:00 15.3 C 89 % 13.5 C
106 13-08-2014 08:45:00 15.3 C 90 % 13.67 C
107 13-08-2014 08:50:00 15.3 C 91 % 13.84 C
108 13-08-2014 08:55:00 15.4 C 91 % 13.94 C
109 13-08-2014 09:00:00 15.4 C 92 % 14.11 C
110 13-08-2014 09:05:00 15.7 C 91 % 14.24 C
111 13-08-2014 09:10:00 15.9 C 90 % 14.26 C
112 13-08-2014 09:15:00 16.2 C 87 % 14.03 C
113 13-08-2014 09:20:00 16.6 C 87 % 14.43 C
114 13-08-2014 09:25:00 16.8 C 86 % 14.45 C
115 13-08-2014 09:30:00 16.9 C 84 % 14.18 C
116 13-08-2014 09:35:00 17.2 C 83 % 14.29 C
117 13-08-2014 09:40:00 17.3 C 82 % 14.2 C
118 13-08-2014 09:45:00 17.4 C 82 % 14.3 C
119 13-08-2014 09:50:00 17.5 C 82 % 14.39 C
120 13-08-2014 09:55:00 17.6 C 80 % 14.11 C
121 13-08-2014 10:00:00 17.7 C 80 % 14.21 C
122 13-08-2014 10:05:00 17.7 C 80 % 14.21 C
123 13-08-2014 10:10:00 17.8 C 81 % 14.5 C
124 13-08-2014 10:15:00 17.9 C 79 % 14.21 C
125 13-08-2014 10:20:00 18.1 C 80 % 14.6 C
Sensor: Nr:Datum:Temp:Feuchte:Taupunkt:
Aussen-T/F 126 13-08-2014 10:25:00 18.2 C 79 % 14.5 C
127 13-08-2014 10:30:00 18.3 C 79 % 14.6 C
128 13-08-2014 10:35:00 18.6 C 79 % 14.89 C
129 13-08-2014 10:40:00 18.7 C 75 % 14.18 C
130 13-08-2014 10:45:00 18.8 C 76 % 14.48 C
131 13-08-2014 10:50:00 19 C 74 % 14.26 C
132 13-08-2014 10:55:00 19.1 C 74 % 14.36 C
133 13-08-2014 11:00:00 19.2 C 75 % 14.66 C
134 13-08-2014 11:05:00 19.2 C 75 % 14.66 C
135 13-08-2014 11:10:00 19.3 C 75 % 14.76 C
136 13-08-2014 11:15:00 19.4 C 75 % 14.86 C
137 13-08-2014 11:20:00 19.6 C 73 % 14.63 C
138 13-08-2014 11:25:00 19.7 C 74 % 14.94 C
139 13-08-2014 11:30:00 19.7 C 74 % 14.94 C
140 13-08-2014 11:35:00 19.6 C 74 % 14.84 C
141 13-08-2014 11:40:00 19.6 C 74 % 14.84 C
142 13-08-2014 11:45:00 19.6 C 76 % 15.26 C
143 13-08-2014 11:50:00 19.6 C 74 % 14.84 C
144 13-08-2014 11:55:00 19.6 C 75 % 15.05 C
145 13-08-2014 12:00:00 19.4 C 75 % 14.86 C
146 13-08-2014 12:05:00 19.4 C 76 % 15.06 C
147 13-08-2014 12:10:00 19.4 C 75 % 14.86 C
148 13-08-2014 12:15:00 19.5 C 76 % 15.16 C
149 13-08-2014 12:20:00 19.6 C 75 % 15.05 C
150 13-08-2014 12:25:00 19.8 C 73 % 14.82 C
Sensor: Nr:Datum:Temp:Feuchte:Taupunkt:
Aussen-T/F 151 13-08-2014 12:30:00 20 C 75 % 15.43 C
152 13-08-2014 12:35:00 20.2 C 73 % 15.21 C
153 13-08-2014 12:40:00 20.1 C 71 % 14.68 C
154 13-08-2014 12:45:00 20.1 C 72 % 14.9 C
155 13-08-2014 12:50:00 20.2 C 74 % 15.42 C
156 13-08-2014 12:55:00 20.2 C 74 % 15.42 C
157 13-08-2014 13:00:00 20.1 C 73 % 15.11 C
158 13-08-2014 13:05:00 20.1 C 75 % 15.53 C
159 13-08-2014 13:10:00 20.1 C 74 % 15.32 C
160 13-08-2014 13:15:00 20.1 C 76 % 15.74 C
161 13-08-2014 13:20:00 19.9 C 75 % 15.34 C
162 13-08-2014 13:25:00 19.8 C 81 % 16.45 C
163 13-08-2014 13:30:00 19.6 C 81 % 16.25 C
164 13-08-2014 13:35:00 19.3 C 82 % 16.15 C
165 13-08-2014 13:40:00 19 C 83 % 16.05 C
166 13-08-2014 13:45:00 18.7 C 85 % 16.13 C
167 13-08-2014 13:50:00 18.6 C 87 % 16.39 C
168 13-08-2014 13:55:00 18.5 C 87 % 16.3 C
169 13-08-2014 14:00:00 18.6 C 89 % 16.75 C
170 13-08-2014 14:05:00 18.6 C 84 % 15.84 C
171 13-08-2014 14:10:00 18.8 C 88 % 16.77 C
172 13-08-2014 14:15:00 18.8 C 88 % 16.77 C
173 13-08-2014 14:20:00 18.9 C 88 % 16.87 C
174 13-08-2014 14:25:00 19 C 88 % 16.97 C
175 13-08-2014 14:30:00 18.9 C 88 % 16.87 C
Sensor: Nr:Datum:Temp:Feuchte:Taupunkt:
Aussen-T/F 176 13-08-2014 14:35:00 18.8 C 88 % 16.77 C
177 13-08-2014 14:40:00 18.7 C 89 % 16.85 C
178 13-08-2014 14:45:00 18.6 C 90 % 16.93 C
179 13-08-2014 14:50:00 18.6 C 90 % 16.93 C
180 13-08-2014 14:55:00 18.5 C 90 % 16.83 C
181 13-08-2014 15:00:00 18.4 C 90 % 16.73 C
182 13-08-2014 15:05:00 18.3 C 91 % 16.81 C
183 13-08-2014 15:10:00 18.3 C 91 % 16.81 C
184 13-08-2014 15:15:00 18.2 C 92 % 16.88 C
185 13-08-2014 15:20:00 18.1 C 92 % 16.78 C
186 13-08-2014 15:25:00 18 C 92 % 16.68 C
187 13-08-2014 15:30:00 17.9 C 93 % 16.75 C
188 13-08-2014 15:35:00 17.8 C 93 % 16.65 C
189 13-08-2014 15:40:00 17.7 C 93 % 16.55 C
190 13-08-2014 15:45:00 17.7 C 94 % 16.72 C
191 13-08-2014 15:50:00 17.7 C 94 % 16.72 C
192 13-08-2014 15:55:00 17.7 C 93 % 16.55 C
193 13-08-2014 16:00:00 17.6 C 94 % 16.62 C
194 13-08-2014 16:05:00 17.6 C 93 % 16.45 C
195 13-08-2014 16:10:00 17.5 C 93 % 16.36 C
196 13-08-2014 16:15:00 17.4 C 93 % 16.26 C
197 13-08-2014 16:20:00 17.3 C 92 % 15.99 C
198 13-08-2014 16:25:00 17.2 C 92 % 15.89 C
199 13-08-2014 16:30:00 17.2 C 93 % 16.06 C
200 13-08-2014 16:35:00 17.1 C 93 % 15.96 C
Sensor: Nr:Datum:Temp:Feuchte:Taupunkt:
Aussen-T/F 201 13-08-2014 16:40:00 17 C 93 % 15.86 C
202 13-08-2014 16:45:00 16.8 C 92 % 15.49 C
203 13-08-2014 16:50:00 16.7 C 92 % 15.39 C
204 13-08-2014 16:55:00 16.6 C 92 % 15.3 C
205 13-08-2014 17:00:00 16.4 C 92 % 15.1 C
206 13-08-2014 17:05:00 16.3 C 92 % 15 C
207 13-08-2014 17:10:00 16.2 C 92 % 14.9 C
208 13-08-2014 17:15:00 16 C 93 % 14.87 C
209 13-08-2014 17:20:00 15.8 C 93 % 14.67 C
210 13-08-2014 17:25:00 15.7 C 93 % 14.57 C
211 13-08-2014 17:30:00 15.6 C 94 % 14.64 C
212 13-08-2014 17:35:00 15.7 C 94 % 14.74 C
213 13-08-2014 17:40:00 15.6 C 94 % 14.64 C
214 13-08-2014 17:45:00 15.6 C 95 % 14.8 C
215 13-08-2014 17:50:00 15.6 C 95 % 14.8 C
216 13-08-2014 17:55:00 15.7 C 95 % 14.9 C
217 13-08-2014 18:00:00 15.7 C 95 % 14.9 C
218 13-08-2014 18:05:00 15.7 C 95 % 14.9 C
219 13-08-2014 18:10:00 15.7 C 95 % 14.9 C
220 13-08-2014 18:15:00 15.7 C 96 % 15.06 C
221 13-08-2014 18:20:00 15.7 C 96 % 15.06 C
222 13-08-2014 18:25:00 15.7 C 96 % 15.06 C
223 13-08-2014 18:30:00 15.7 C 96 % 15.06 C
224 13-08-2014 18:35:00 15.7 C 96 % 15.06 C
225 13-08-2014 18:40:00 15.7 C 96 % 15.06 C
Sensor: Nr:Datum:Temp:Feuchte:Taupunkt:
Aussen-T/F 226 13-08-2014 18:45:00 15.7 C 96 % 15.06 C
227 13-08-2014 18:50:00 15.6 C 96 % 14.96 C
228 13-08-2014 18:55:00 15.6 C 96 % 14.96 C
229 13-08-2014 19:00:00 15.6 C 96 % 14.96 C
230 13-08-2014 19:05:00 15.7 C 96 % 15.06 C
231 13-08-2014 19:10:00 15.7 C 96 % 15.06 C
232 13-08-2014 19:15:00 15.8 C 96 % 15.16 C
233 13-08-2014 19:20:00 15.8 C 96 % 15.16 C
234 13-08-2014 19:25:00 15.8 C 96 % 15.16 C
235 13-08-2014 19:30:00 15.8 C 96 % 15.16 C
236 13-08-2014 19:35:00 15.7 C 96 % 15.06 C
237 13-08-2014 19:40:00 15.7 C 96 % 15.06 C
238 13-08-2014 19:45:00 15.7 C 96 % 15.06 C
239 13-08-2014 19:50:00 15.6 C 96 % 14.96 C
240 13-08-2014 19:55:00 15.6 C 97 % 15.13 C
241 13-08-2014 20:00:00 15.6 C 97 % 15.13 C
242 13-08-2014 20:05:00 15.5 C 97 % 15.03 C
243 13-08-2014 20:10:00 15.5 C 96 % 14.86 C
244 13-08-2014 20:15:00 15.5 C 97 % 15.03 C
245 13-08-2014 20:20:00 15.6 C 97 % 15.13 C
246 13-08-2014 20:25:00 15.6 C 97 % 15.13 C
247 13-08-2014 20:30:00 15.7 C 97 % 15.23 C
248 13-08-2014 20:35:00 15.7 C 97 % 15.23 C
249 13-08-2014 20:40:00 15.7 C 97 % 15.23 C
250 13-08-2014 20:45:00 15.7 C 97 % 15.23 C
Sensor: Nr:Datum:Temp:Feuchte:Taupunkt:
Aussen-T/F 251 13-08-2014 20:50:00 15.6 C 97 % 15.13 C
252 13-08-2014 20:55:00 15.5 C 97 % 15.03 C
253 13-08-2014 21:00:00 15.4 C 97 % 14.93 C
254 13-08-2014 21:05:00 15.4 C 97 % 14.93 C
255 13-08-2014 21:10:00 15.3 C 97 % 14.83 C
256 13-08-2014 21:15:00 15.3 C 97 % 14.83 C
257 13-08-2014 21:20:00 15.3 C 97 % 14.83 C
258 13-08-2014 21:25:00 15.3 C 97 % 14.83 C
259 13-08-2014 21:30:00 15.3 C 97 % 14.83 C
260 13-08-2014 21:35:00 15.3 C 96 % 14.67 C
261 13-08-2014 21:40:00 15.3 C 96 % 14.67 C
262 13-08-2014 21:45:00 15.2 C 96 % 14.57 C
263 13-08-2014 21:50:00 15.2 C 96 % 14.57 C
264 13-08-2014 21:55:00 15.1 C 95 % 14.31 C
265 13-08-2014 22:00:00 15.1 C 95 % 14.31 C
266 13-08-2014 22:05:00 15.1 C 95 % 14.31 C
267 13-08-2014 22:10:00 15 C 95 % 14.21 C
268 13-08-2014 22:15:00 15.1 C 95 % 14.31 C
269 13-08-2014 22:20:00 15.1 C 95 % 14.31 C
270 13-08-2014 22:25:00 15.2 C 95 % 14.4 C
271 13-08-2014 22:30:00 15.2 C 95 % 14.4 C
272 13-08-2014 22:35:00 15.2 C 95 % 14.4 C
273 13-08-2014 22:40:00 15.2 C 95 % 14.4 C
274 13-08-2014 22:45:00 15.2 C 95 % 14.4 C
275 13-08-2014 22:50:00 15.1 C 95 % 14.31 C
Sensor: Nr:Datum:Temp:Feuchte:Taupunkt:
Aussen-T/F 276 13-08-2014 22:55:00 15.1 C 95 % 14.31 C
277 13-08-2014 23:00:00 15.1 C 95 % 14.31 C
278 13-08-2014 23:05:00 15.1 C 95 % 14.31 C
279 13-08-2014 23:10:00 15.2 C 95 % 14.4 C
280 13-08-2014 23:15:00 15.2 C 95 % 14.4 C
281 13-08-2014 23:20:00 15.2 C 95 % 14.4 C
282 13-08-2014 23:25:00 15.2 C 95 % 14.4 C
283 13-08-2014 23:30:00 15.2 C 94 % 14.24 C
284 13-08-2014 23:35:00 15.2 C 94 % 14.24 C
285 13-08-2014 23:40:00 15.1 C 94 % 14.14 C
286 13-08-2014 23:45:00 15.1 C 94 % 14.14 C
287 13-08-2014 23:50:00 15.1 C 94 % 14.14 C
288 13-08-2014 23:55:00 15.1 C 94 % 14.14 C
289 14-08-2014 00:00:00 15.1 C 94 % 14.14 C
290 14-08-2014 00:05:00 15.1 C 93 % 13.98 C
291 14-08-2014 00:10:00 15.1 C 93 % 13.98 C
292 14-08-2014 00:15:00 15.1 C 93 % 13.98 C
293 14-08-2014 00:20:00 15.1 C 93 % 13.98 C
294 14-08-2014 00:25:00 15 C 93 % 13.88 C
295 14-08-2014 00:30:00 14.9 C 93 % 13.78 C
296 14-08-2014 00:35:00 14.8 C 93 % 13.68 C
297 14-08-2014 00:40:00 14.8 C 93 % 13.68 C
298 14-08-2014 00:45:00 14.8 C 93 % 13.68 C
299 14-08-2014 00:50:00 14.8 C 93 % 13.68 C
300 14-08-2014 00:55:00 14.8 C 92 % 13.51 C
Sensor: Nr:Datum:Temp:Feuchte:Taupunkt:
Aussen-T/F 301 14-08-2014 01:00:00 14.8 C 92 % 13.51 C
302 14-08-2014 01:05:00 14.8 C 91 % 13.35 C
303 14-08-2014 01:10:00 14.8 C 91 % 13.35 C
304 14-08-2014 01:15:00 14.8 C 91 % 13.35 C
305 14-08-2014 01:20:00 14.8 C 92 % 13.51 C
306 14-08-2014 01:25:00 14.7 C 92 % 13.41 C
307 14-08-2014 01:30:00 14.6 C 92 % 13.32 C
308 14-08-2014 01:35:00 14.5 C 93 % 13.38 C
309 14-08-2014 01:40:00 14.4 C 93 % 13.28 C
310 14-08-2014 01:45:00 14.3 C 93 % 13.18 C
311 14-08-2014 01:50:00 14.3 C 94 % 13.35 C
312 14-08-2014 01:55:00 14.2 C 94 % 13.25 C
313 14-08-2014 02:00:00 14.1 C 94 % 13.15 C
314 14-08-2014 02:05:00 14.1 C 94 % 13.15 C
315 14-08-2014 02:10:00 14.1 C 94 % 13.15 C
316 14-08-2014 02:15:00 14 C 94 % 13.05 C
317 14-08-2014 02:20:00 13.9 C 95 % 13.11 C
318 14-08-2014 02:25:00 13.9 C 95 % 13.11 C
319 14-08-2014 02:30:00 13.8 C 95 % 13.01 C
320 14-08-2014 02:35:00 13.8 C 95 % 13.01 C
321 14-08-2014 02:40:00 13.7 C 95 % 12.91 C
322 14-08-2014 02:45:00 13.7 C 96 % 13.07 C
323 14-08-2014 02:50:00 13.6 C 95 % 12.81 C
324 14-08-2014 02:55:00 13.6 C 96 % 12.97 C
325 14-08-2014 03:00:00 13.5 C 96 % 12.87 C
Sensor: Nr:Datum:Temp:Feuchte:Taupunkt:
Aussen-T/F 326 14-08-2014 03:05:00 13.5 C 96 % 12.87 C
327 14-08-2014 03:10:00 13.4 C 96 % 12.78 C
328 14-08-2014 03:15:00 13.4 C 96 % 12.78 C
329 14-08-2014 03:20:00 13.4 C 96 % 12.78 C
330 14-08-2014 03:25:00 13.4 C 96 % 12.78 C
331 14-08-2014 03:30:00 13.3 C 96 % 12.68 C
332 14-08-2014 03:35:00 13.3 C 96 % 12.68 C
333 14-08-2014 03:40:00 13.3 C 96 % 12.68 C
334 14-08-2014 03:45:00 13.3 C 96 % 12.68 C
335 14-08-2014 03:50:00 13.2 C 97 % 12.73 C
336 14-08-2014 03:55:00 13.2 C 97 % 12.73 C
337 14-08-2014 04:00:00 13.1 C 97 % 12.63 C
338 14-08-2014 04:05:00 13.1 C 97 % 12.63 C
339 14-08-2014 04:10:00 13.1 C 97 % 12.63 C
340 14-08-2014 04:15:00 13.2 C 97 % 12.73 C
341 14-08-2014 04:20:00 13.2 C 97 % 12.73 C
342 14-08-2014 04:25:00 13.3 C 97 % 12.83 C
343 14-08-2014 04:30:00 13.3 C 97 % 12.83 C
344 14-08-2014 04:35:00 13.3 C 97 % 12.83 C
345 14-08-2014 04:40:00 13.3 C 97 % 12.83 C
346 14-08-2014 04:45:00 13.2 C 97 % 12.73 C
347 14-08-2014 04:50:00 13.2 C 97 % 12.73 C
348 14-08-2014 04:55:00 13.2 C 97 % 12.73 C
349 14-08-2014 05:00:00 13.2 C 97 % 12.73 C
350 14-08-2014 05:05:00 13.2 C 97 % 12.73 C
Sensor: Nr:Datum:Temp:Feuchte:Taupunkt:
Aussen-T/F 351 14-08-2014 05:10:00 13.2 C 97 % 12.73 C
352 14-08-2014 05:15:00 13.2 C 97 % 12.73 C
353 14-08-2014 05:20:00 13.2 C 97 % 12.73 C
354 14-08-2014 05:25:00 13.1 C 97 % 12.63 C
355 14-08-2014 05:30:00 13 C 97 % 12.54 C
356 14-08-2014 05:35:00 13 C 97 % 12.54 C
357 14-08-2014 05:40:00 13 C 97 % 12.54 C
358 14-08-2014 05:45:00 12.9 C 97 % 12.44 C
359 14-08-2014 05:50:00 12.9 C 97 % 12.44 C
360 14-08-2014 05:55:00 12.9 C 97 % 12.44 C
361 14-08-2014 06:00:00 12.9 C 97 % 12.44 C
362 14-08-2014 06:05:00 13 C 97 % 12.54 C
363 14-08-2014 06:10:00 13 C 97 % 12.54 C
364 14-08-2014 06:15:00 13 C 97 % 12.54 C
365 14-08-2014 06:20:00 13 C 97 % 12.54 C
366 14-08-2014 06:25:00 12.9 C 97 % 12.44 C
367 14-08-2014 06:30:00 12.9 C 97 % 12.44 C
368 14-08-2014 06:35:00 12.9 C 97 % 12.44 C
369 14-08-2014 06:40:00 12.9 C 97 % 12.44 C
370 14-08-2014 06:45:00 12.9 C 97 % 12.44 C
371 14-08-2014 06:50:00 12.8 C 97 % 12.34 C
372 14-08-2014 06:55:00 12.8 C 97 % 12.34 C
373 14-08-2014 07:00:00 12.9 C 97 % 12.44 C
374 14-08-2014 07:05:00 13.1 C 97 % 12.63 C
375 14-08-2014 07:10:00 13.2 C 97 % 12.73 C
Sensor: Nr:Datum:Temp:Feuchte:Taupunkt:
Aussen-T/F 376 14-08-2014 07:15:00 13.3 C 97 % 12.83 C
377 14-08-2014 07:20:00 13.4 C 97 % 12.93 C
378 14-08-2014 07:25:00 13.5 C 97 % 13.03 C
379 14-08-2014 07:30:00 13.6 C 97 % 13.13 C
380 14-08-2014 07:35:00 13.7 C 97 % 13.23 C
381 14-08-2014 07:40:00 13.8 C 97 % 13.33 C
382 14-08-2014 07:45:00 13.9 C 96 % 13.27 C
383 14-08-2014 07:50:00 13.9 C 95 % 13.11 C
384 14-08-2014 07:55:00 14.1 C 94 % 13.15 C
385 14-08-2014 08:00:00 14.2 C 93 % 13.08 C
386 14-08-2014 08:05:00 14.4 C 91 % 12.95 C
387 14-08-2014 08:10:00 14.7 C 90 % 13.08 C
388 14-08-2014 08:15:00 14.8 C 90 % 13.18 C
389 14-08-2014 08:20:00 14.9 C 89 % 13.1 C
390 14-08-2014 08:25:00 15 C 89 % 13.2 C
391 14-08-2014 08:30:00 15.1 C 88 % 13.13 C
392 14-08-2014 08:35:00 15.1 C 88 % 13.13 C
393 14-08-2014 08:40:00 15 C 88 % 13.03 C
394 14-08-2014 08:45:00 15 C 88 % 13.03 C
395 14-08-2014 08:50:00 15.1 C 89 % 13.3 C
396 14-08-2014 08:55:00 15.1 C 89 % 13.3 C
397 14-08-2014 09:00:00 15 C 89 % 13.2 C
398 14-08-2014 09:05:00 15.1 C 91 % 13.64 C
399 14-08-2014 09:10:00 15.1 C 90 % 13.47 C
400 14-08-2014 09:15:00 15.3 C 89 % 13.5 C
Sensor: Nr:Datum:Temp:Feuchte:Taupunkt:
Aussen-T/F 401 14-08-2014 09:20:00 15.4 C 88 % 13.42 C
402 14-08-2014 09:25:00 15.6 C 88 % 13.62 C
403 14-08-2014 09:30:00 15.6 C 87 % 13.45 C
404 14-08-2014 09:35:00 15.6 C 87 % 13.45 C
405 14-08-2014 09:40:00 15.7 C 88 % 13.72 C
406 14-08-2014 09:45:00 15.8 C 87 % 13.64 C
407 14-08-2014 09:50:00 15.9 C 85 % 13.38 C
408 14-08-2014 09:55:00 16.1 C 85 % 13.58 C
409 14-08-2014 10:00:00 16.2 C 85 % 13.68 C
410 14-08-2014 10:05:00 16.3 C 85 % 13.77 C
411 14-08-2014 10:10:00 16.4 C 85 % 13.87 C
412 14-08-2014 10:15:00 16.4 C 85 % 13.87 C
413 14-08-2014 10:20:00 16.4 C 84 % 13.69 C
414 14-08-2014 10:25:00 16.4 C 82 % 13.32 C
415 14-08-2014 10:30:00 16.4 C 81 % 13.13 C
416 14-08-2014 10:35:00 16.5 C 80 % 13.04 C
417 14-08-2014 10:40:00 16.7 C 80 % 13.23 C
418 14-08-2014 10:45:00 16.8 C 80 % 13.33 C
419 14-08-2014 10:50:00 16.9 C 78 % 13.04 C
420 14-08-2014 10:55:00 16.8 C 79 % 13.14 C
421 14-08-2014 11:00:00 16.8 C 80 % 13.33 C
422 14-08-2014 11:05:00 16.9 C 79 % 13.24 C
423 14-08-2014 11:10:00 16.9 C 80 % 13.43 C
424 14-08-2014 11:15:00 17 C 78 % 13.14 C
425 14-08-2014 11:20:00 17 C 79 % 13.33 C
Sensor: Nr:Datum:Temp:Feuchte:Taupunkt:
Aussen-T/F 426 14-08-2014 11:25:00 17.1 C 77 % 13.04 C
427 14-08-2014 11:30:00 17.2 C 78 % 13.33 C
428 14-08-2014 11:35:00 17.2 C 77 % 13.14 C
429 14-08-2014 11:40:00 17.3 C 80 % 13.82 C
430 14-08-2014 11:45:00 17.5 C 77 % 13.43 C
431 14-08-2014 11:50:00 17.8 C 75 % 13.31 C
432 14-08-2014 11:55:00 17.8 C 74 % 13.11 C
433 14-08-2014 12:00:00 18.1 C 75 % 13.6 C
434 14-08-2014 12:05:00 18.2 C 74 % 13.49 C
435 14-08-2014 12:10:00 18.3 C 72 % 13.17 C
436 14-08-2014 12:15:00 18.4 C 74 % 13.68 C
437 14-08-2014 12:20:00 18.7 C 73 % 13.76 C
438 14-08-2014 12:25:00 18.9 C 73 % 13.96 C
439 14-08-2014 12:30:00 19.1 C 73 % 14.15 C
440 14-08-2014 12:35:00 19.3 C 71 % 13.91 C
441 14-08-2014 12:40:00 19.4 C 69 % 13.57 C
442 14-08-2014 12:45:00 19.6 C 69 % 13.76 C
443 14-08-2014 12:50:00 19.8 C 68 % 13.73 C
444 14-08-2014 12:55:00 19.8 C 67 % 13.5 C
445 14-08-2014 13:00:00 19.8 C 71 % 14.39 C
446 14-08-2014 13:05:00 20.1 C 69 % 14.24 C
447 14-08-2014 13:10:00 20.3 C 66 % 13.74 C
448 14-08-2014 13:15:00 20.2 C 66 % 13.65 C
449 14-08-2014 13:20:00 19.9 C 68 % 13.82 C
450 14-08-2014 13:25:00 19.6 C 65 % 12.84 C
Sensor: Nr:Datum:Temp:Feuchte:Taupunkt:
Aussen-T/F 451 14-08-2014 13:30:00 19.3 C 68 % 13.25 C
452 14-08-2014 13:35:00 19.1 C 71 % 13.72 C
453 14-08-2014 13:40:00 18.9 C 72 % 13.74 C
454 14-08-2014 13:45:00 19 C 73 % 14.05 C
455 14-08-2014 13:50:00 19.1 C 74 % 14.36 C
456 14-08-2014 13:55:00 19 C 73 % 14.05 C
457 14-08-2014 14:00:00 19.1 C 72 % 13.94 C
458 14-08-2014 14:05:00 19.3 C 72 % 14.13 C
459 14-08-2014 14:10:00 19.3 C 71 % 13.91 C
460 14-08-2014 14:15:00 19.3 C 73 % 14.34 C
461 14-08-2014 14:20:00 19.4 C 72 % 14.22 C
462 14-08-2014 14:25:00 19.5 C 74 % 14.74 C
463 14-08-2014 14:30:00 19.8 C 72 % 14.61 C
464 14-08-2014 14:35:00 19.9 C 71 % 14.49 C
465 14-08-2014 14:40:00 20.2 C 70 % 14.56 C
466 14-08-2014 14:45:00 20.3 C 68 % 14.2 C
467 14-08-2014 14:50:00 20.5 C 67 % 14.16 C
468 14-08-2014 14:55:00 20.7 C 67 % 14.36 C
469 14-08-2014 15:00:00 20.4 C 67 % 14.07 C
470 14-08-2014 15:05:00 20 C 69 % 14.14 C
471 14-08-2014 15:10:00 19.8 C 69 % 13.95 C
472 14-08-2014 15:15:00 20.1 C 69 % 14.24 C
473 14-08-2014 15:20:00 20.5 C 67 % 14.16 C
474 14-08-2014 15:25:00 20.8 C 72 % 15.57 C
475 14-08-2014 15:30:00 20.9 C 67 % 14.55 C
Sensor: Nr:Datum:Temp:Feuchte:Taupunkt:
Aussen-T/F 476 14-08-2014 15:35:00 20.6 C 64 % 13.55 C
477 14-08-2014 15:40:00 20.1 C 66 % 13.55 C
478 14-08-2014 15:45:00 19.8 C 67 % 13.5 C
479 14-08-2014 15:50:00 19.4 C 69 % 13.57 C
480 14-08-2014 15:55:00 19.1 C 72 % 13.94 C
481 14-08-2014 16:00:00 18.7 C 77 % 14.59 C
482 14-08-2014 16:05:00 18.3 C 72 % 13.17 C
483 14-08-2014 16:10:00 18.2 C 73 % 13.28 C
484 14-08-2014 16:15:00 18.4 C 74 % 13.68 C
485 14-08-2014 16:20:00 18.9 C 74 % 14.17 C
486 14-08-2014 16:25:00 19.6 C 70 % 13.98 C
487 14-08-2014 16:30:00 20.2 C 68 % 14.11 C
488 14-08-2014 16:35:00 20.6 C 67 % 14.26 C
489 14-08-2014 16:40:00 21.1 C 65 % 14.27 C
490 14-08-2014 16:45:00 20.8 C 64 % 13.74 C
491 14-08-2014 16:50:00 20.4 C 66 % 13.84 C
492 14-08-2014 16:55:00 20.4 C 67 % 14.07 C
493 14-08-2014 17:00:00 21.1 C 67 % 14.74 C
494 14-08-2014 17:05:00 21.4 C 66 % 14.79 C
495 14-08-2014 17:10:00 21.6 C 63 % 14.26 C
496 14-08-2014 17:15:00 21.9 C 57 % 13 C
497 14-08-2014 17:20:00 21.9 C 57 % 13 C
498 14-08-2014 17:25:00 21.5 C 59 % 13.15 C
499 14-08-2014 17:30:00 21.1 C 61 % 13.29 C
500 14-08-2014 17:35:00 20.6 C 67 % 14.26 C
Sensor: Nr:Datum:Temp:Feuchte:Taupunkt:
Aussen-T/F 501 14-08-2014 17:40:00 20.2 C 66 % 13.65 C
502 14-08-2014 17:45:00 19.8 C 68 % 13.73 C
503 14-08-2014 17:50:00 19.6 C 75 % 15.05 C
504 14-08-2014 17:55:00 19.3 C 73 % 14.34 C
505 14-08-2014 18:00:00 19.5 C 71 % 14.1 C
506 14-08-2014 18:05:00 19.7 C 69 % 13.86 C
507 14-08-2014 18:10:00 19.6 C 78 % 15.66 C
508 14-08-2014 18:15:00 19.4 C 74 % 14.65 C
509 14-08-2014 18:20:00 19.8 C 68 % 13.73 C
510 14-08-2014 18:25:00 20 C 72 % 14.8 C
511 14-08-2014 18:30:00 19.8 C 68 % 13.73 C
512 14-08-2014 18:35:00 19.5 C 67 % 13.21 C
513 14-08-2014 18:40:00 19.1 C 67 % 12.83 C
514 14-08-2014 18:45:00 18.4 C 71 % 13.05 C
515 14-08-2014 18:50:00 17.8 C 72 % 12.69 C
516 14-08-2014 18:55:00 17.4 C 75 % 12.93 C
517 14-08-2014 19:00:00 17.1 C 75 % 12.64 C
518 14-08-2014 19:05:00 16.8 C 78 % 12.94 C
519 14-08-2014 19:10:00 16.7 C 80 % 13.23 C
520 14-08-2014 19:15:00 16.5 C 81 % 13.23 C
521 14-08-2014 19:20:00 16.3 C 82 % 13.22 C
522 14-08-2014 19:25:00 16.2 C 82 % 13.13 C
523 14-08-2014 19:30:00 16.1 C 83 % 13.21 C
524 14-08-2014 19:35:00 16.1 C 83 % 13.21 C
525 14-08-2014 19:40:00 16 C 83 % 13.12 C
Sensor: Nr:Datum:Temp:Feuchte:Taupunkt:
Aussen-T/F 526 14-08-2014 19:45:00 16 C 83 % 13.12 C
527 14-08-2014 20:05:00 15.7 C 85 % 13.19 C
528 14-08-2014 20:10:00 15.6 C 85 % 13.09 C
529 14-08-2014 20:15:00 15.6 C 86 % 13.27 C
530 14-08-2014 20:20:00 15.4 C 86 % 13.07 C
531 14-08-2014 20:25:00 15.3 C 87 % 13.15 C
532 14-08-2014 20:30:00 15.2 C 88 % 13.23 C
533 14-08-2014 20:35:00 15.1 C 88 % 13.13 C
534 14-08-2014 20:40:00 15 C 89 % 13.2 C
535 14-08-2014 20:45:00 14.9 C 89 % 13.1 C
536 14-08-2014 20:50:00 14.9 C 89 % 13.1 C
537 14-08-2014 20:55:00 14.8 C 89 % 13.01 C
538 14-08-2014 21:00:00 14.8 C 90 % 13.18 C
539 14-08-2014 21:05:00 14.8 C 90 % 13.18 C
540 14-08-2014 21:10:00 14.7 C 90 % 13.08 C
541 14-08-2014 21:15:00 14.7 C 90 % 13.08 C
542 14-08-2014 21:20:00 14.6 C 90 % 12.98 C
543 14-08-2014 21:25:00 14.6 C 90 % 12.98 C
544 14-08-2014 21:30:00 14.6 C 90 % 12.98 C
545 14-08-2014 21:50:00 14.8 C 89 % 13.01 C
546 14-08-2014 21:55:00 14.8 C 90 % 13.18 C
547 14-08-2014 22:00:00 14.8 C 90 % 13.18 C
548 14-08-2014 22:05:00 14.7 C 90 % 13.08 C
549 14-08-2014 22:10:00 14.7 C 90 % 13.08 C
550 14-08-2014 22:15:00 14.7 C 90 % 13.08 C
Sensor: Nr:Datum:Temp:Feuchte:Taupunkt:
Aussen-T/F 551 14-08-2014 22:20:00 14.7 C 91 % 13.25 C
552 14-08-2014 22:25:00 14.7 C 91 % 13.25 C
553 14-08-2014 22:30:00 14.7 C 91 % 13.25 C
554 14-08-2014 22:35:00 14.7 C 91 % 13.25 C
555 14-08-2014 22:40:00 14.7 C 91 % 13.25 C
556 14-08-2014 22:45:00 14.7 C 91 % 13.25 C
557 14-08-2014 22:50:00 14.7 C 91 % 13.25 C
558 14-08-2014 22:55:00 14.7 C 91 % 13.25 C
559 14-08-2014 23:00:00 14.6 C 91 % 13.15 C
560 14-08-2014 23:05:00 14.6 C 91 % 13.15 C
561 14-08-2014 23:10:00 14.7 C 91 % 13.25 C
562 14-08-2014 23:15:00 14.6 C 89 % 12.81 C
563 14-08-2014 23:20:00 14.7 C 90 % 13.08 C
564 14-08-2014 23:25:00 14.7 C 90 % 13.08 C
565 14-08-2014 23:30:00 14.7 C 90 % 13.08 C
566 14-08-2014 23:35:00 14.7 C 90 % 13.08 C
567 14-08-2014 23:40:00 14.7 C 90 % 13.08 C
568 14-08-2014 23:45:00 14.6 C 87 % 12.46 C
569 14-08-2014 23:50:00 14.7 C 87 % 12.56 C
570 14-08-2014 23:55:00 14.8 C 88 % 12.83 C
571 15-08-2014 00:00:00 14.7 C 88 % 12.73 C
572 15-08-2014 00:05:00 14.5 C 89 % 12.71 C
573 15-08-2014 00:10:00 14.3 C 90 % 12.68 C
574 15-08-2014 00:15:00 14.2 C 90 % 12.58 C
575 15-08-2014 00:20:00 14.2 C 89 % 12.41 C
Sensor: Nr:Datum:Temp:Feuchte:Taupunkt:
Aussen-T/F 576 15-08-2014 00:25:00 14.2 C 89 % 12.41 C
577 15-08-2014 00:30:00 14.2 C 89 % 12.41 C
578 15-08-2014 00:35:00 14.2 C 89 % 12.41 C
579 15-08-2014 00:40:00 14.2 C 89 % 12.41 C
580 15-08-2014 00:45:00 14.2 C 89 % 12.41 C
581 15-08-2014 00:50:00 14.2 C 89 % 12.41 C
582 15-08-2014 00:55:00 14.1 C 89 % 12.32 C
583 15-08-2014 01:00:00 14 C 89 % 12.22 C
584 15-08-2014 01:05:00 13.9 C 90 % 12.29 C
585 15-08-2014 01:10:00 13.9 C 90 % 12.29 C
586 15-08-2014 01:15:00 13.8 C 90 % 12.19 C
587 15-08-2014 01:20:00 13.6 C 90 % 11.99 C
588 15-08-2014 01:25:00 13.5 C 90 % 11.89 C
589 15-08-2014 01:30:00 13.4 C 91 % 11.96 C
590 15-08-2014 01:35:00 13.4 C 91 % 11.96 C
591 15-08-2014 01:40:00 13.3 C 91 % 11.86 C
592 15-08-2014 01:45:00 13.3 C 91 % 11.86 C
593 15-08-2014 01:50:00 13.3 C 91 % 11.86 C
594 15-08-2014 01:55:00 13.3 C 91 % 11.86 C
595 15-08-2014 02:00:00 13.4 C 90 % 11.79 C
596 15-08-2014 02:05:00 13.6 C 90 % 11.99 C
597 15-08-2014 02:10:00 13.6 C 90 % 11.99 C
598 15-08-2014 02:15:00 13.6 C 90 % 11.99 C
599 15-08-2014 02:20:00 13.6 C 90 % 11.99 C
600 15-08-2014 02:25:00 13.7 C 90 % 12.09 C
Sensor: Nr:Datum:Temp:Feuchte:Taupunkt:
Aussen-T/F 601 15-08-2014 02:30:00 13.7 C 89 % 11.92 C
602 15-08-2014 02:35:00 13.6 C 90 % 11.99 C
603 15-08-2014 02:40:00 13.6 C 90 % 11.99 C
604 15-08-2014 02:45:00 13.5 C 90 % 11.89 C
605 15-08-2014 02:50:00 13.4 C 90 % 11.79 C
606 15-08-2014 02:55:00 13.3 C 91 % 11.86 C
607 15-08-2014 03:00:00 13.2 C 91 % 11.76 C
608 15-08-2014 03:05:00 13.1 C 92 % 11.83 C
609 15-08-2014 03:10:00 13 C 92 % 11.73 C
610 15-08-2014 03:15:00 12.9 C 92 % 11.63 C
611 15-08-2014 03:20:00 12.9 C 93 % 11.8 C
612 15-08-2014 03:25:00 12.9 C 93 % 11.8 C
613 15-08-2014 03:30:00 12.9 C 93 % 11.8 C
614 15-08-2014 03:35:00 12.9 C 94 % 11.96 C
615 15-08-2014 03:40:00 12.9 C 94 % 11.96 C
616 15-08-2014 03:45:00 13 C 94 % 12.06 C
617 15-08-2014 03:50:00 13.1 C 94 % 12.16 C
618 15-08-2014 03:55:00 13.1 C 94 % 12.16 C
619 15-08-2014 04:00:00 13.1 C 94 % 12.16 C
620 15-08-2014 04:05:00 13.1 C 94 % 12.16 C
621 15-08-2014 04:10:00 13.1 C 94 % 12.16 C
622 15-08-2014 04:15:00 13.2 C 94 % 12.26 C
623 15-08-2014 04:20:00 13.2 C 94 % 12.26 C
624 15-08-2014 04:25:00 13.2 C 94 % 12.26 C
625 15-08-2014 04:30:00 13.2 C 94 % 12.26 C
Sensor: Nr:Datum:Temp:Feuchte:Taupunkt:
Aussen-T/F 626 15-08-2014 04:35:00 13.2 C 94 % 12.26 C
627 15-08-2014 04:40:00 13.3 C 94 % 12.36 C
628 15-08-2014 04:45:00 13.3 C 94 % 12.36 C
629 15-08-2014 04:50:00 13.3 C 94 % 12.36 C
630 15-08-2014 04:55:00 13.3 C 94 % 12.36 C
631 15-08-2014 05:00:00 13.3 C 94 % 12.36 C
632 15-08-2014 05:05:00 13.4 C 94 % 12.45 C
633 15-08-2014 05:10:00 13.4 C 94 % 12.45 C
634 15-08-2014 05:15:00 13.4 C 94 % 12.45 C
635 15-08-2014 05:20:00 13.4 C 94 % 12.45 C
636 15-08-2014 05:25:00 13.4 C 94 % 12.45 C
637 15-08-2014 05:30:00 13.4 C 94 % 12.45 C
638 15-08-2014 05:35:00 13.4 C 94 % 12.45 C
639 15-08-2014 05:40:00 13.4 C 94 % 12.45 C
640 15-08-2014 05:45:00 13.4 C 94 % 12.45 C
641 15-08-2014 05:50:00 13.4 C 94 % 12.45 C
642 15-08-2014 05:55:00 13.4 C 94 % 12.45 C
643 15-08-2014 06:00:00 13.4 C 94 % 12.45 C
644 15-08-2014 06:05:00 13.4 C 94 % 12.45 C
645 15-08-2014 06:10:00 13.4 C 94 % 12.45 C
646 15-08-2014 06:15:00 13.5 C 94 % 12.55 C
647 15-08-2014 06:20:00 13.5 C 94 % 12.55 C
648 15-08-2014 06:25:00 13.5 C 94 % 12.55 C
649 15-08-2014 06:30:00 13.6 C 94 % 12.65 C
650 15-08-2014 06:35:00 13.6 C 93 % 12.49 C
Sensor: Nr:Datum:Temp:Feuchte:Taupunkt:
Aussen-T/F 651 15-08-2014 06:40:00 13.6 C 94 % 12.65 C
652 15-08-2014 06:45:00 13.6 C 93 % 12.49 C
653 15-08-2014 06:50:00 13.6 C 93 % 12.49 C
654 15-08-2014 06:55:00 13.6 C 94 % 12.65 C
655 15-08-2014 07:00:00 13.7 C 94 % 12.75 C
656 15-08-2014 07:05:00 13.7 C 93 % 12.59 C
657 15-08-2014 07:10:00 13.7 C 93 % 12.59 C
658 15-08-2014 07:15:00 13.7 C 93 % 12.59 C
659 15-08-2014 07:20:00 13.7 C 93 % 12.59 C
660 15-08-2014 07:25:00 13.7 C 93 % 12.59 C
661 15-08-2014 07:30:00 13.8 C 93 % 12.69 C
662 15-08-2014 07:35:00 13.8 C 94 % 12.85 C
663 15-08-2014 07:40:00 13.8 C 94 % 12.85 C
664 15-08-2014 07:45:00 13.8 C 94 % 12.85 C
665 15-08-2014 07:50:00 13.8 C 94 % 12.85 C
666 15-08-2014 07:55:00 13.8 C 94 % 12.85 C
667 15-08-2014 08:00:00 13.9 C 94 % 12.95 C
668 15-08-2014 08:05:00 13.9 C 94 % 12.95 C
669 15-08-2014 08:10:00 14 C 94 % 13.05 C
670 15-08-2014 08:15:00 14 C 93 % 12.89 C
671 15-08-2014 08:20:00 14.1 C 93 % 12.99 C
672 15-08-2014 08:25:00 14.2 C 92 % 12.92 C
673 15-08-2014 08:30:00 14.2 C 92 % 12.92 C
674 15-08-2014 08:35:00 14.2 C 91 % 12.75 C
675 15-08-2014 08:40:00 14.3 C 90 % 12.68 C
Sensor: Nr:Datum:Temp:Feuchte:Taupunkt:
Aussen-T/F 676 15-08-2014 08:45:00 14.3 C 91 % 12.85 C
677 15-08-2014 08:50:00 14.3 C 90 % 12.68 C
678 15-08-2014 08:55:00 14.4 C 91 % 12.95 C
679 15-08-2014 09:00:00 14.5 C 91 % 13.05 C
680 15-08-2014 09:05:00 14.6 C 92 % 13.32 C
681 15-08-2014 09:10:00 14.7 C 91 % 13.25 C
682 15-08-2014 09:15:00 14.6 C 90 % 12.98 C
683 15-08-2014 09:20:00 14.7 C 92 % 13.41 C
684 15-08-2014 09:25:00 14.7 C 92 % 13.41 C
685 15-08-2014 09:30:00 14.7 C 91 % 13.25 C
686 15-08-2014 09:35:00 14.7 C 92 % 13.41 C
687 15-08-2014 09:40:00 14.7 C 92 % 13.41 C
688 15-08-2014 09:45:00 14.7 C 92 % 13.41 C
689 15-08-2014 09:50:00 14.8 C 92 % 13.51 C
690 15-08-2014 09:55:00 14.8 C 92 % 13.51 C
691 15-08-2014 10:00:00 14.9 C 92 % 13.61 C
692 15-08-2014 10:05:00 15.1 C 92 % 13.81 C
693 15-08-2014 10:10:00 15.2 C 91 % 13.74 C
694 15-08-2014 10:15:00 15.3 C 92 % 14.01 C
695 15-08-2014 10:20:00 15.3 C 90 % 13.67 C
696 15-08-2014 10:25:00 15.3 C 90 % 13.67 C
697 15-08-2014 10:30:00 15.4 C 91 % 13.94 C
698 15-08-2014 10:35:00 15.4 C 90 % 13.77 C
699 15-08-2014 10:40:00 15.4 C 89 % 13.6 C
700 15-08-2014 10:45:00 15.6 C 90 % 13.97 C
Sensor: Nr:Datum:Temp:Feuchte:Taupunkt:
Aussen-T/F 701 15-08-2014 10:50:00 15.6 C 88 % 13.62 C
702 15-08-2014 10:55:00 15.6 C 88 % 13.62 C
703 15-08-2014 11:00:00 15.6 C 89 % 13.79 C
704 15-08-2014 11:05:00 15.6 C 88 % 13.62 C
705 15-08-2014 11:10:00 15.6 C 88 % 13.62 C
706 15-08-2014 11:15:00 15.7 C 89 % 13.89 C
707 15-08-2014 11:20:00 15.7 C 87 % 13.54 C
708 15-08-2014 11:25:00 15.7 C 87 % 13.54 C
709 15-08-2014 11:30:00 15.7 C 87 % 13.54 C
710 15-08-2014 11:35:00 15.8 C 88 % 13.82 C
711 15-08-2014 11:40:00 15.8 C 87 % 13.64 C
712 15-08-2014 11:45:00 15.7 C 87 % 13.54 C
713 15-08-2014 11:50:00 15.7 C 89 % 13.89 C
714 15-08-2014 11:55:00 15.7 C 89 % 13.89 C
715 15-08-2014 12:00:00 15.7 C 90 % 14.06 C
716 15-08-2014 12:05:00 15.7 C 90 % 14.06 C
717 15-08-2014 12:10:00 15.7 C 90 % 14.06 C
718 15-08-2014 12:15:00 15.7 C 90 % 14.06 C
719 15-08-2014 12:20:00 15.9 C 90 % 14.26 C
720 15-08-2014 12:25:00 15.9 C 90 % 14.26 C
721 15-08-2014 13:15:00 16.6 C 82 % 13.52 C
722 15-08-2014 13:20:00 16.4 C 84 % 13.69 C
723 15-08-2014 13:25:00 16.4 C 86 % 14.05 C
724 15-08-2014 13:30:00 16.4 C 85 % 13.87 C
725 15-08-2014 13:35:00 16.3 C 85 % 13.77 C
Sensor: Nr:Datum:Temp:Feuchte:Taupunkt:
Aussen-T/F 726 15-08-2014 13:40:00 16.1 C 86 % 13.76 C
727 15-08-2014 13:45:00 16 C 88 % 14.01 C
728 15-08-2014 13:50:00 15.8 C 88 % 13.82 C
729 15-08-2014 13:55:00 15.7 C 88 % 13.72 C
730 15-08-2014 14:00:00 15.8 C 89 % 13.99 C
731 15-08-2014 14:05:00 15.9 C 89 % 14.09 C
732 15-08-2014 14:10:00 15.9 C 88 % 13.92 C
733 15-08-2014 14:15:00 16.1 C 88 % 14.11 C
734 15-08-2014 14:20:00 16.2 C 87 % 14.03 C
735 15-08-2014 14:25:00 16.3 C 86 % 13.95 C
736 15-08-2014 14:30:00 16.2 C 88 % 14.21 C
737 15-08-2014 14:35:00 15.8 C 88 % 13.82 C
738 15-08-2014 14:40:00 15.3 C 88 % 13.33 C
739 15-08-2014 14:45:00 15.1 C 90 % 13.47 C
740 15-08-2014 14:50:00 14.9 C 91 % 13.44 C
741 15-08-2014 14:55:00 14.7 C 92 % 13.41 C
742 15-08-2014 15:00:00 14.7 C 93 % 13.58 C
743 15-08-2014 15:05:00 14.7 C 94 % 13.74 C
744 15-08-2014 15:10:00 14.8 C 94 % 13.84 C
745 15-08-2014 15:15:00 14.9 C 94 % 13.94 C
746 15-08-2014 15:20:00 15.1 C 94 % 14.14 C
747 15-08-2014 15:25:00 15.2 C 92 % 13.91 C
748 15-08-2014 15:30:00 15.6 C 93 % 14.47 C
749 15-08-2014 15:35:00 15.8 C 92 % 14.5 C
750 15-08-2014 15:40:00 15.9 C 91 % 14.43 C
Sensor: Nr:Datum:Temp:Feuchte:Taupunkt:
Aussen-T/F 751 15-08-2014 15:45:00 15.9 C 89 % 14.09 C
752 15-08-2014 15:50:00 15.9 C 89 % 14.09 C
753 15-08-2014 15:55:00 15.9 C 88 % 13.92 C
754 15-08-2014 16:00:00 16.2 C 87 % 14.03 C
755 15-08-2014 16:05:00 16.3 C 87 % 14.13 C
756 15-08-2014 16:10:00 16.4 C 87 % 14.23 C
757 15-08-2014 16:15:00 16.4 C 89 % 14.58 C
758 15-08-2014 16:20:00 16.3 C 90 % 14.66 C
759 15-08-2014 16:25:00 16 C 90 % 14.36 C
760 15-08-2014 16:30:00 15.7 C 91 % 14.24 C
761 15-08-2014 16:35:00 15.4 C 92 % 14.11 C
762 15-08-2014 16:40:00 15.1 C 93 % 13.98 C
763 15-08-2014 16:45:00 14.8 C 92 % 13.51 C
764 15-08-2014 16:50:00 14.6 C 92 % 13.32 C
765 15-08-2014 16:55:00 14.3 C 92 % 13.02 C
766 15-08-2014 17:00:00 14.2 C 93 % 13.08 C
767 15-08-2014 17:05:00 14.2 C 93 % 13.08 C
768 15-08-2014 17:10:00 14.1 C 94 % 13.15 C
769 15-08-2014 17:15:00 14.1 C 94 % 13.15 C
770 15-08-2014 17:20:00 14.2 C 95 % 13.41 C
771 15-08-2014 17:25:00 14.3 C 95 % 13.51 C
772 15-08-2014 17:30:00 14.2 C 94 % 13.25 C
773 15-08-2014 17:35:00 14.3 C 94 % 13.35 C
774 15-08-2014 17:40:00 14.5 C 94 % 13.55 C
775 15-08-2014 17:45:00 14.9 C 95 % 14.11 C
Sensor: Nr:Datum:Temp:Feuchte:Taupunkt:
Aussen-T/F 776 15-08-2014 17:50:00 15.6 C 94 % 14.64 C
777 15-08-2014 17:55:00 15.9 C 90 % 14.26 C
778 15-08-2014 18:00:00 16.4 C 91 % 14.93 C
779 15-08-2014 18:05:00 16.8 C 88 % 14.8 C
780 15-08-2014 18:10:00 17.2 C 87 % 15.02 C
781 15-08-2014 18:15:00 17.5 C 88 % 15.49 C
782 15-08-2014 18:20:00 17.6 C 86 % 15.23 C
783 15-08-2014 18:25:00 17.6 C 87 % 15.41 C
784 15-08-2014 18:30:00 17.4 C 87 % 15.21 C
785 15-08-2014 18:35:00 17.3 C 89 % 15.47 C
786 15-08-2014 18:40:00 16.9 C 90 % 15.25 C
787 15-08-2014 18:45:00 16.7 C 91 % 15.22 C
788 15-08-2014 18:50:00 16.3 C 92 % 15 C
789 15-08-2014 18:55:00 16.2 C 92 % 14.9 C
790 15-08-2014 19:00:00 15.9 C 92 % 14.6 C
791 15-08-2014 19:05:00 15.6 C 92 % 14.31 C
792 15-08-2014 19:10:00 15.2 C 93 % 14.08 C
793 15-08-2014 19:15:00 15.1 C 94 % 14.14 C
794 15-08-2014 19:20:00 15 C 94 % 14.04 C
795 15-08-2014 19:25:00 14.8 C 94 % 13.84 C
796 15-08-2014 19:30:00 14.7 C 94 % 13.74 C
797 15-08-2014 19:35:00 14.6 C 95 % 13.81 C
798 15-08-2014 19:40:00 14.5 C 95 % 13.71 C
799 15-08-2014 19:45:00 14.4 C 95 % 13.61 C
800 15-08-2014 19:50:00 14.4 C 95 % 13.61 C
Sensor: Nr:Datum:Temp:Feuchte:Taupunkt:
Aussen-T/F 801 15-08-2014 19:55:00 14.3 C 95 % 13.51 C
802 15-08-2014 20:00:00 14.3 C 96 % 13.67 C
803 15-08-2014 20:05:00 14.4 C 96 % 13.77 C
804 15-08-2014 20:10:00 14.4 C 96 % 13.77 C
805 15-08-2014 20:15:00 14.4 C 96 % 13.77 C
806 15-08-2014 20:20:00 14.4 C 96 % 13.77 C
807 15-08-2014 20:25:00 14.5 C 96 % 13.87 C
808 15-08-2014 20:30:00 14.4 C 96 % 13.77 C
809 15-08-2014 20:35:00 14.5 C 97 % 14.03 C
810 15-08-2014 20:40:00 14.5 C 97 % 14.03 C
811 15-08-2014 20:45:00 14.5 C 97 % 14.03 C
812 15-08-2014 20:50:00 14.4 C 96 % 13.77 C
813 15-08-2014 20:55:00 14.3 C 96 % 13.67 C
814 15-08-2014 21:00:00 14.3 C 96 % 13.67 C
815 15-08-2014 21:05:00 14.3 C 96 % 13.67 C
816 15-08-2014 21:10:00 14.3 C 97 % 13.83 C
817 15-08-2014 21:15:00 14.3 C 97 % 13.83 C
818 15-08-2014 21:20:00 14.2 C 97 % 13.73 C
819 15-08-2014 21:25:00 14.2 C 97 % 13.73 C
820 15-08-2014 21:30:00 14.2 C 97 % 13.73 C
821 15-08-2014 21:35:00 14.2 C 96 % 13.57 C
822 15-08-2014 21:40:00 14.1 C 96 % 13.47 C
823 15-08-2014 21:45:00 14 C 96 % 13.37 C
824 15-08-2014 21:50:00 13.9 C 96 % 13.27 C
825 15-08-2014 21:55:00 13.9 C 96 % 13.27 C
Sensor: Nr:Datum:Temp:Feuchte:Taupunkt:
Aussen-T/F 826 15-08-2014 22:00:00 13.9 C 96 % 13.27 C
827 15-08-2014 22:05:00 13.9 C 97 % 13.43 C
828 15-08-2014 22:10:00 13.8 C 97 % 13.33 C
829 15-08-2014 22:15:00 13.8 C 97 % 13.33 C
830 15-08-2014 22:20:00 13.8 C 97 % 13.33 C
831 15-08-2014 22:25:00 13.8 C 97 % 13.33 C
832 15-08-2014 22:30:00 13.8 C 97 % 13.33 C
833 15-08-2014 22:35:00 13.7 C 97 % 13.23 C
834 15-08-2014 22:40:00 13.6 C 97 % 13.13 C
835 15-08-2014 22:45:00 13.6 C 97 % 13.13 C
836 15-08-2014 22:50:00 13.6 C 97 % 13.13 C
837 15-08-2014 22:55:00 13.6 C 97 % 13.13 C
838 15-08-2014 23:00:00 13.6 C 97 % 13.13 C
839 15-08-2014 23:05:00 13.5 C 97 % 13.03 C
840 15-08-2014 23:10:00 13.4 C 97 % 12.93 C
841 15-08-2014 23:15:00 13.4 C 97 % 12.93 C
842 15-08-2014 23:20:00 13.3 C 97 % 12.83 C
843 15-08-2014 23:25:00 13.2 C 97 % 12.73 C
844 15-08-2014 23:30:00 13.2 C 97 % 12.73 C
845 15-08-2014 23:35:00 13.1 C 97 % 12.63 C
846 15-08-2014 23:40:00 13.1 C 97 % 12.63 C
847 15-08-2014 23:45:00 13.1 C 97 % 12.63 C
848 15-08-2014 23:50:00 13.2 C 97 % 12.73 C
849 15-08-2014 23:55:00 13.2 C 97 % 12.73 C

Legende:
   Min
   Max


Maximal/Minimal-Werte vom 13.08.2014 - 15.08.2014

Sensor Min Max Avg
Temp
(Aussen-T/F)
12.8 °C
14-08-2014  06:50:00
21.9 °C
14-08-2014  17:15:00
15.55 °C
Feuchte
(Aussen-T/F)
57 %
14-08-2014  17:15:00
97 %
13-08-2014  19:55:00
88.71 %
Taupunkt
(Aussen-T/F)
11.63 C
15-08-2014  03:15:00
16.97 C
13-08-2014  14:25:00
13.59 C

Die Daten stammen von einer Davis Vantage Pro 2 Wetter-Station und werden unter Linux mit der Software wview2wettercgi und aufbereitet. Alle Angaben erfolgen ohne Gewähr für ihre Vollständigkeit oder Richtigkeit.
Kontakt: Rainer Krienke krienke@uni-koblenz.de . Meine Webseiten an der Uni Koblenz oder privat.
Version: $Revision: 0.78 $